Time;durP1;ratioP1;P1;durP2;ratioP2;P2;SDS_P1;SDS_P2;PMS_P1;PMS_P2;Temp;Humidity;BMP_temperature;BMP_pressure;BME280_temperature;BME280_humidity;BME280_pressure;Samples;Min_cycle;Max_cycle;Signal;HPM_P1;HPM_P2
2024/02/13 00:02:00;;;;;;;;;;;;;;;10.93;52.28;100220.06;4907967;28;128875;-64
2024/02/13 00:04:26;;;;;;;;;;;;;;;10.92;52.31;100223.81;4920930;28;99374;-65
2024/02/13 00:06:56;;;;;;;;;;;;;;;10.92;52.36;100220.31;4912289;28;98115;-68
2024/02/13 00:09:22;;;;;;;;;;;;;;;10.91;52.59;100226.78;4925805;28;98185;-64
2024/02/13 00:11:50;;;;;;;;;;;;;;;10.90;52.28;100233.28;4905784;28;98863;-69
2024/02/13 00:14:17;;;;;;;;;;;;;;;10.90;52.36;100227.88;4904247;28;99333;-64
2024/02/13 00:16:44;;;;;;;;;;;;;;;10.88;52.20;100233.53;4909063;28;98109;-69
2024/02/13 00:19:11;;;;;;;;;;;;;;;10.87;52.50;100240.03;4916217;28;98360;-64
2024/02/13 00:21:37;;;;;;;;;;;;;;;10.87;52.35;100252.69;4909298;28;97932;-68
2024/02/13 00:24:04;;;;;;;;;;;;;;;10.86;52.30;100251.09;4906772;28;97973;-64
2024/02/13 00:26:30;;;;;;;;;;;;;;;10.86;52.23;100259.19;4908529;28;98098;-66
2024/02/13 00:28:56;;;;;;;;;;;;;;;10.86;52.15;100259.19;4917043;28;125058;-64
2024/02/13 00:31:23;;;;;;;;;;;;;;;10.84;52.38;100270.22;4907916;28;98497;-64
2024/02/13 00:33:49;;;;;;;;;;;;;;;10.84;52.26;100269.41;4940299;28;98748;-68
2024/02/13 00:36:15;;;;;;;;;;;;;;;10.83;52.54;100271.31;4920592;28;117509;-64
2024/02/13 00:38:43;;;;;;;;;;;;;;;10.82;52.44;100277.78;4901694;28;100232;-69
2024/02/13 00:41:09;;;;;;;;;;;;;;;10.81;52.58;100279.69;4922068;28;103225;-64
2024/02/13 00:43:36;;;;;;;;;;;;;;;10.82;52.45;100281.28;4901981;28;104574;-64
2024/02/13 00:46:02;;;;;;;;;;;;;;;10.79;52.28;100281.81;4916981;28;98397;-68
2024/02/13 00:48:30;;;;;;;;;;;;;;;10.79;52.21;100273.75;4917960;28;108105;-64
2024/02/13 00:50:56;;;;;;;;;;;;;;;10.80;52.50;100282.63;4919583;28;97968;-68
2024/02/13 00:53:22;;;;;;;;;;;;;;;10.79;52.20;100276.44;4916176;28;108737;-69
2024/02/13 00:55:52;;;;;;;;;;;;;;;10.76;52.57;100286.97;4950990;28;99069;-64
2024/02/13 00:58:18;;;;;;;;;;;;;;;10.77;52.27;100285.91;4905935;28;98193;-69
2024/02/13 01:00:45;;;;;;;;;;;;;;;10.76;52.45;100289.66;4905923;28;118096;-69
2024/02/13 01:03:11;;;;;;;;;;;;;;;10.76;52.37;100284.25;4917977;28;98050;-69
2024/02/13 01:05:40;;;;;;;;;;;;;;;10.76;52.16;100292.34;4917444;28;98862;-64
2024/02/13 01:08:12;;;;;;;;;;;;;;;10.74;52.15;100298.03;4905833;28;98729;-68
2024/02/13 01:10:38;;;;;;;;;;;;;;;10.74;52.16;100299.91;4926195;28;97913;-68
2024/02/13 01:13:04;;;;;;;;;;;;;;;10.73;52.27;100293.72;4908497;28;99387;-69
2024/02/13 01:15:31;;;;;;;;;;;;;;;10.72;52.16;100305.56;4914310;28;99491;-69
2024/02/13 01:17:59;;;;;;;;;;;;;;;10.71;52.15;100303.94;4925898;28;98173;-65
2024/02/13 01:20:25;;;;;;;;;;;;;;;10.71;52.52;100308.53;4902291;28;98470;-68
2024/02/13 01:22:53;;;;;;;;;;;;;;;10.70;52.22;100315.81;4920520;28;98229;-69
2024/02/13 01:25:19;;;;;;;;;;;;;;;10.69;52.35;100319.59;4905964;28;98385;-69
2024/02/13 01:27:46;;;;;;;;;;;;;;;10.69;52.28;100316.06;4932128;28;129687;-64
2024/02/13 01:30:13;;;;;;;;;;;;;;;10.67;52.13;100324.44;4933777;28;98619;-68
2024/02/13 01:32:40;;;;;;;;;;;;;;;10.67;52.66;100323.66;4920421;28;98080;-68
2024/02/13 01:35:07;;;;;;;;;;;;;;;10.66;52.01;100322.03;4905203;28;98248;-68
2024/02/13 01:37:33;;;;;;;;;;;;;;;10.66;52.52;100324.72;4899432;28;118484;-68
2024/02/13 01:39:59;;;;;;;;;;;;;;;10.65;52.53;100329.31;4918550;28;98402;-69
2024/02/13 01:42:26;;;;;;;;;;;;;;;10.65;52.24;100328.47;4916958;28;99849;-68
2024/02/13 01:44:53;;;;;;;;;;;;;;;10.65;52.31;100333.88;4926234;28;98210;-68
2024/02/13 01:47:21;;;;;;;;;;;;;;;10.62;52.48;100329.84;4921918;28;98592;-69
2024/02/13 01:49:47;;;;;;;;;;;;;;;10.62;52.43;100339.84;4905093;28;98461;-68
2024/02/13 01:52:14;;;;;;;;;;;;;;;10.62;52.29;100334.44;4921661;28;118200;-64
2024/02/13 01:54:41;;;;;;;;;;;;;;;10.61;52.43;100343.59;4954389;28;99482;-68
2024/02/13 01:57:08;;;;;;;;;;;;;;;10.61;52.28;100343.59;4920147;28;100123;-64
2024/02/13 01:59:38;;;;;;;;;;;;;;;10.60;52.37;100348.16;4941886;28;100283;-64
2024/02/13 02:02:08;;;;;;;;;;;;;;;10.58;52.21;100347.66;4922357;28;98252;-68
2024/02/13 02:04:35;;;;;;;;;;;;;;;10.59;52.26;100348.44;4917325;28;98045;-68
2024/02/13 02:07:03;;;;;;;;;;;;;;;10.57;52.57;100343.31;4904386;28;99225;-64
2024/02/13 02:09:31;;;;;;;;;;;;;;;10.57;52.46;100354.09;4926739;28;99078;-68
2024/02/13 02:11:57;;;;;;;;;;;;;;;10.55;52.22;100351.69;4903277;28;98334;-68
2024/02/13 02:14:23;;;;;;;;;;;;;;;10.55;52.39;100359.75;4919476;28;98429;-64
2024/02/13 02:16:50;;;;;;;;;;;;;;;10.55;52.29;100361.66;4901642;28;99700;-69
2024/02/13 02:19:16;;;;;;;;;;;;;;;10.53;52.51;100367.31;4907686;28;99405;-64
2024/02/13 02:21:43;;;;;;;;;;;;;;;10.53;52.50;100361.09;4923402;28;99400;-68
2024/02/13 02:24:09;;;;;;;;;;;;;;;10.53;52.63;100361.09;4921233;28;98041;-64
2024/02/13 02:26:35;;;;;;;;;;;;;;;10.53;52.49;100358.41;4920796;28;103275;-68
2024/02/13 02:29:01;;;;;;;;;;;;;;;10.51;52.61;100372.16;4910863;28;121263;-64
2024/02/13 02:31:28;;;;;;;;;;;;;;;10.51;52.54;100368.66;4944041;28;98441;-64
2024/02/13 02:33:55;;;;;;;;;;;;;;;10.52;52.31;100381.06;4920579;28;106842;-68
2024/02/13 02:36:22;;;;;;;;;;;;;;;10.51;52.26;100379.44;4911663;28;98178;-64
2024/02/13 02:38:49;;;;;;;;;;;;;;;10.50;52.14;100375.94;4922231;28;98190;-68
2024/02/13 02:41:15;;;;;;;;;;;;;;;10.52;52.58;100383.75;4900551;28;115721;-68
2024/02/13 02:43:41;;;;;;;;;;;;;;;10.51;52.24;100393.72;4920022;28;98415;-68
2024/02/13 02:46:07;;;;;;;;;;;;;;;10.52;52.51;100386.44;4918544;28;116342;-64
2024/02/13 02:48:33;;;;;;;;;;;;;;;10.51;52.16;100388.34;4914237;28;102150;-64
2024/02/13 02:51:00;;;;;;;;;;;;;;;10.52;52.19;100392.63;4926421;28;97955;-68
2024/02/13 02:53:26;;;;;;;;;;;;;;;10.53;52.49;100398.84;4907417;28;98001;-64
2024/02/13 02:55:54;;;;;;;;;;;;;;;10.54;52.50;100403.16;4908884;28;99568;-68
2024/02/13 02:58:20;;;;;;;;;;;;;;;10.54;52.15;100405.88;4938326;28;98167;-64
2024/02/13 03:00:48;;;;;;;;;;;;;;;10.53;52.02;100415.84;4917927;28;98243;-68
2024/02/13 03:03:14;;;;;;;;;;;;;;;10.55;52.30;100407.47;4921574;28;97874;-64
2024/02/13 03:05:40;;;;;;;;;;;;;;;10.56;52.31;100422.56;4904655;28;98790;-68
2024/02/13 03:08:08;;;;;;;;;;;;;;;10.56;52.18;100425.25;4907295;28;121283;-68
2024/02/13 03:10:35;;;;;;;;;;;;;;;10.57;52.44;100426.88;4922820;28;98156;-64
2024/02/13 03:13:01;;;;;;;;;;;;;;;10.57;52.48;100434.94;4921033;28;99364;-64
2024/02/13 03:15:27;;;;;;;;;;;;;;;10.56;52.31;100439.53;4920960;28;98623;-68
2024/02/13 03:17:53;;;;;;;;;;;;;;;10.58;52.31;100447.38;4955297;28;97992;-68
2024/02/13 03:20:20;;;;;;;;;;;;;;;10.59;52.19;100442.78;4924021;28;126335;-68
2024/02/13 03:22:46;;;;;;;;;;;;;;;10.59;52.14;100451.69;4917573;28;98344;-68
2024/02/13 03:25:13;;;;;;;;;;;;;;;10.60;52.52;100458.69;4910077;28;100269;-64
2024/02/13 03:27:41;;;;;;;;;;;;;;;10.61;52.06;100462.19;4908844;28;98038;-68
2024/02/13 03:30:08;;;;;;;;;;;;;;;10.61;52.28;100465.72;4906038;28;98975;-65
2024/02/13 03:32:34;;;;;;;;;;;;;;;10.60;52.25;100461.38;4926821;28;98435;-65
2024/02/13 03:35:00;;;;;;;;;;;;;;;10.62;52.21;100466.53;4921832;28;98203;-69
2024/02/13 03:37:25;;;;;;;;;;;;;;;10.63;51.99;100473.53;4921846;28;98153;-68
2024/02/13 03:39:52;;;;;;;;;;;;;;;10.63;52.52;100481.63;4906738;28;124351;-69
2024/02/13 03:42:18;;;;;;;;;;;;;;;10.63;52.15;100492.38;4923631;28;98626;-69
2024/02/13 03:44:45;;;;;;;;;;;;;;;10.64;52.15;100488.63;4921040;28;98193;-65
2024/02/13 03:47:13;;;;;;;;;;;;;;;10.63;52.26;100493.19;4911884;28;98269;-64
2024/02/13 03:49:40;;;;;;;;;;;;;;;10.64;52.10;100494.81;4911206;28;98448;-70
2024/02/13 03:52:06;;;;;;;;;;;;;;;10.65;52.16;100495.63;4926732;28;98032;-69
2024/02/13 03:54:32;;;;;;;;;;;;;;;10.65;52.40;100509.09;4909731;28;100216;-64
2024/02/13 03:57:00;;;;;;;;;;;;;;;10.65;52.26;100507.25;4926307;28;126512;-65
2024/02/13 03:59:29;;;;;;;;;;;;;;;10.65;52.13;100504.53;4919527;28;99182;-64
2024/02/13 04:01:55;;;;;;;;;;;;;;;10.66;52.53;100510.72;4903143;28;98130;-65
2024/02/13 04:04:21;;;;;;;;;;;;;;;10.66;52.14;100518.81;4936682;28;100059;-65
2024/02/13 04:06:47;;;;;;;;;;;;;;;10.66;52.17;100516.13;4918104;28;125662;-65
2024/02/13 04:09:13;;;;;;;;;;;;;;;10.66;52.20;100518.81;4907499;28;99593;-65
2024/02/13 04:11:39;;;;;;;;;;;;;;;10.66;51.95;100527.72;4921084;28;98284;-64
2024/02/13 04:14:05;;;;;;;;;;;;;;;10.67;52.43;100528.53;4940777;28;98291;-69
2024/02/13 04:16:31;;;;;;;;;;;;;;;10.67;52.45;100537.41;4920657;28;98250;-65
2024/02/13 04:18:58;;;;;;;;;;;;;;;10.67;52.14;100528.53;4938816;28;98277;-69
2024/02/13 04:21:25;;;;;;;;;;;;;;;10.68;52.21;100532.84;4918832;28;98216;-65
2024/02/13 04:23:51;;;;;;;;;;;;;;;10.68;52.12;100544.41;4926826;28;99958;-69
2024/02/13 04:26:20;;;;;;;;;;;;;;;10.69;52.54;100545.22;4920518;28;117638;-69
2024/02/13 04:28:46;;;;;;;;;;;;;;;10.68;52.48;100551.69;4904858;28;98237;-69
2024/02/13 04:31:12;;;;;;;;;;;;;;;10.69;52.36;100556.00;4920133;28;98479;-69
2024/02/13 04:33:38;;;;;;;;;;;;;;;10.68;52.49;100555.19;4942223;28;99706;-64
2024/02/13 04:36:05;;;;;;;;;;;;;;;10.68;52.22;100554.41;4914384;28;98421;-65
2024/02/13 04:38:33;;;;;;;;;;;;;;;10.68;52.22;100563.28;4908649;28;109929;-69
2024/02/13 04:41:00;;;;;;;;;;;;;;;10.68;52.50;100571.38;4950046;28;98475;-68
2024/02/13 04:43:26;;;;;;;;;;;;;;;10.68;52.10;100573.28;4919601;28;98349;-69
2024/02/13 04:45:52;;;;;;;;;;;;;;;10.67;52.22;100572.47;4938327;28;98048;-69
2024/02/13 04:48:18;;;;;;;;;;;;;;;10.67;52.32;100574.34;4933664;28;98171;-69
2024/02/13 04:50:45;;;;;;;;;;;;;;;10.66;52.59;100578.94;4924923;28;97974;-69
2024/02/13 04:53:15;;;;;;;;;;;;;;;10.66;52.23;100581.63;4920358;28;98331;-69
2024/02/13 04:55:41;;;;;;;;;;;;;;;10.66;52.16;100588.91;4937646;28;98682;-64
2024/02/13 04:58:08;;;;;;;;;;;;;;;10.64;52.39;100591.06;4925416;28;97960;-65
2024/02/13 05:00:37;;;;;;;;;;;;;;;10.64;52.37;100596.44;4922339;28;98039;-69
2024/02/13 05:03:16;;;;;;;;;;;;;;;10.64;52.29;100593.75;4936515;28;98111;-64
2024/02/13 05:08:36;;;;;;;;;;;;;;;10.63;52.35;100608.31;4908441;28;97990;-69
2024/02/13 05:11:02;;;;;;;;;;;;;;;10.62;52.55;100607.50;4923097;28;99007;-69
2024/02/13 05:13:31;;;;;;;;;;;;;;;10.61;52.61;100616.66;4954642;28;98170;-69
2024/02/13 05:15:58;;;;;;;;;;;;;;;10.60;52.21;100608.81;4905669;28;99648;-69
2024/02/13 05:18:24;;;;;;;;;;;;;;;10.60;52.47;100611.53;4905104;28;98577;-65
2024/02/13 05:20:50;;;;;;;;;;;;;;;10.59;52.53;100626.88;4939528;28;98440;-65
2024/02/13 05:23:16;;;;;;;;;;;;;;;10.59;52.04;100626.09;4921672;28;99290;-69
2024/02/13 05:25:44;;;;;;;;;;;;;;;10.57;52.29;100624.47;4902614;28;98278;-70
2024/02/13 05:28:11;;;;;;;;;;;;;;;10.57;52.04;100635.25;4918400;28;99557;-64
2024/02/13 05:30:37;;;;;;;;;;;;;;;10.55;52.56;100632.00;4950170;28;98244;-68
2024/02/13 05:33:04;;;;;;;;;;;;;;;10.54;52.03;100634.97;4936210;28;104992;-68
2024/02/13 05:35:30;;;;;;;;;;;;;;;10.54;52.57;100635.78;4901882;28;98322;-64
2024/02/13 05:37:56;;;;;;;;;;;;;;;10.53;52.21;100644.94;4922275;28;99578;-64
2024/02/13 05:40:22;;;;;;;;;;;;;;;10.53;52.27;100649.50;4918385;28;98189;-69
2024/02/13 05:42:48;;;;;;;;;;;;;;;10.51;52.53;100648.97;4910747;28;98090;-64
2024/02/13 05:45:14;;;;;;;;;;;;;;;10.51;52.50;100651.66;4907661;28;116881;-65
2024/02/13 05:47:41;;;;;;;;;;;;;;;10.50;52.50;100664.31;4922424;28;98858;-64
2024/02/13 05:50:08;;;;;;;;;;;;;;;10.50;52.38;100666.22;4907218;28;100060;-68
2024/02/13 05:52:34;;;;;;;;;;;;;;;10.48;52.39;100671.84;4924844;28;101421;-64
2024/02/13 05:55:01;;;;;;;;;;;;;;;10.46;52.33;100667.81;4934451;28;98604;-64
2024/02/13 05:57:27;;;;;;;;;;;;;;;10.43;52.26;100669.13;4902108;28;98275;-68
2024/02/13 05:59:53;;;;;;;;;;;;;;;10.41;52.14;100668.56;4925072;28;98173;-69
2024/02/13 06:02:19;;;;;;;;;;;;;;;10.40;52.15;100679.63;4919785;28;99517;-68
2024/02/13 06:04:45;;;;;;;;;;;;;;;10.38;52.56;100681.78;4916332;28;100815;-64
2024/02/13 06:07:11;;;;;;;;;;;;;;;10.37;52.45;100686.31;4898533;28;98161;-69
2024/02/13 06:09:38;;;;;;;;;;;;;;;10.37;52.16;100691.72;4902401;28;98216;-64
2024/02/13 06:12:06;;;;;;;;;;;;;;;10.37;52.31;100696.31;4918735;28;98170;-64
2024/02/13 06:14:34;;;;;;;;;;;;;;;10.35;52.39;100701.97;4921649;28;98287;-64
2024/02/13 06:17:00;;;;;;;;;;;;;;;10.35;52.51;100712.75;4933215;28;98040;-68
2024/02/13 06:19:26;;;;;;;;;;;;;;;10.34;52.48;100710.31;4920212;28;98435;-67
2024/02/13 06:21:52;;;;;;;;;;;;;;;10.34;52.00;100713.81;4917773;28;108418;-64
2024/02/13 06:24:19;;;;;;;;;;;;;;;10.34;52.41;100711.13;4905113;28;97934;-64
2024/02/13 06:26:48;;;;;;;;;;;;;;;10.34;52.13;100719.22;4904640;28;98226;-68
2024/02/13 06:29:15;;;;;;;;;;;;;;;10.35;52.17;100726.22;4939219;28;98113;-69
2024/02/13 06:31:42;;;;;;;;;;;;;;;10.35;52.19;100725.41;4912192;28;98140;-68
2024/02/13 06:34:09;;;;;;;;;;;;;;;10.36;52.04;100729.72;4918636;28;98292;-64
2024/02/13 06:36:35;;;;;;;;;;;;;;;10.37;52.26;100736.72;4931150;28;98192;-68
2024/02/13 06:39:02;;;;;;;;;;;;;;;10.36;52.27;100737.81;4905657;28;98196;-65
2024/02/13 06:41:29;;;;;;;;;;;;;;;10.37;52.37;100737.53;4923639;28;98526;-64
2024/02/13 06:43:55;;;;;;;;;;;;;;;10.38;52.00;100747.25;4922837;28;98367;-68
2024/02/13 06:46:21;;;;;;;;;;;;;;;10.38;52.35;100747.25;4908264;28;115269;-68
2024/02/13 06:48:47;;;;;;;;;;;;;;;10.40;52.57;100753.19;4901101;28;99892;-68
2024/02/13 06:51:13;;;;;;;;;;;;;;;10.42;52.00;100758.34;4906640;28;100782;-64
2024/02/13 06:53:40;;;;;;;;;;;;;;;10.43;52.06;100759.94;4918463;28;98487;-68
2024/02/13 06:56:06;;;;;;;;;;;;;;;10.45;52.10;100758.63;4941629;28;98358;-69
2024/02/13 06:58:33;;;;;;;;;;;;;;;10.48;52.12;100765.38;4920735;28;113799;-64
2024/02/13 07:01:02;;;;;;;;;;;;;;;10.50;52.02;100769.44;4903328;28;99593;-68
2024/02/13 07:03:31;;;;;;;;;;;;;;;10.52;52.03;100767.28;4922845;28;98263;-68
2024/02/13 07:05:57;;;;;;;;;;;;;;;10.56;52.29;100767.56;4935567;28;98075;-64
2024/02/13 07:08:24;;;;;;;;;;;;;;;10.59;52.11;100774.34;4921356;28;103144;-64
2024/02/13 07:10:50;;;;;;;;;;;;;;;10.65;51.96;100782.22;4921970;28;97849;-69
2024/02/13 07:13:16;;;;;;;;;;;;;;;10.73;51.84;100773.63;4906587;28;99331;-68
2024/02/13 07:15:42;;;;;;;;;;;;;;;10.80;51.88;100778.78;4931419;28;110882;-64
2024/02/13 07:18:08;;;;;;;;;;;;;;;10.86;51.91;100779.63;4919958;28;97947;-64
2024/02/13 07:20:34;;;;;;;;;;;;;;;10.88;51.88;100782.88;4925114;28;98052;-68
2024/02/13 07:23:03;;;;;;;;;;;;;;;10.90;52.03;100786.13;4922645;28;97984;-68
2024/02/13 07:25:29;;;;;;;;;;;;;;;10.99;51.69;100789.94;4909576;28;98062;-65
2024/02/13 07:27:57;;;;;;;;;;;;;;;11.14;51.69;100789.22;4941798;28;98193;-64
2024/02/13 07:30:23;;;;;;;;;;;;;;;11.13;51.83;100788.41;4925229;28;98257;-64
2024/02/13 07:32:50;;;;;;;;;;;;;;;11.11;51.61;100795.94;4924510;28;98117;-68
2024/02/13 07:35:16;;;;;;;;;;;;;;;11.08;51.97;100804.53;4917741;28;100406;-70
2024/02/13 07:37:41;;;;;;;;;;;;;;;11.08;51.97;100801.84;4905193;28;98333;-68
2024/02/13 07:40:08;;;;;;;;;;;;;;;11.11;51.78;100808.63;4932897;28;126059;-68
2024/02/13 07:42:34;;;;;;;;;;;;;;;11.17;51.89;100816.47;4917768;28;121432;-68
2024/02/13 07:45:00;;;;;;;;;;;;;;;11.22;51.73;100815.69;4918594;28;107665;-68
2024/02/13 07:47:26;;;;;;;;;;;;;;;11.23;52.07;100818.13;4920513;28;98196;-64
2024/02/13 07:49:55;;;;;;;;;;;;;;;11.30;51.75;100824.09;4918934;28;99497;-68
2024/02/13 07:52:21;;;;;;;;;;;;;;;11.36;51.63;100819.53;4907915;28;98354;-68
2024/02/13 07:54:47;;;;;;;;;;;;;;;11.41;51.69;100826.84;4919982;28;97932;-68
2024/02/13 07:57:16;;;;;;;;;;;;;;;11.45;51.57;100825.22;4928326;28;97849;-68
2024/02/13 07:59:46;;;;;;;;;;;;;;;11.49;51.71;100824.44;4951549;28;100373;-64
2024/02/13 08:02:13;;;;;;;;;;;;;;;11.57;51.69;100831.22;4912638;28;99557;-64
2024/02/13 08:04:40;;;;;;;;;;;;;;;11.65;51.63;100817.19;4937411;28;97957;-64
2024/02/13 08:07:07;;;;;;;;;;;;;;;11.76;51.41;100826.97;4913170;28;98041;-68
2024/02/13 08:09:34;;;;;;;;;;;;;;;11.82;51.48;100826.97;4934143;28;98276;-68
2024/02/13 08:12:02;;;;;;;;;;;;;;;11.89;51.57;100825.66;4924556;28;98287;-68
2024/02/13 08:14:29;;;;;;;;;;;;;;;11.94;51.58;100825.66;4926177;28;98436;-64
2024/02/13 08:16:55;;;;;;;;;;;;;;;12.02;51.49;100835.97;4920431;28;98371;-64
2024/02/13 08:19:21;;;;;;;;;;;;;;;12.09;51.59;100827.56;4937717;28;98172;-68
2024/02/13 08:21:47;;;;;;;;;;;;;;;12.19;51.37;100826.78;4909533;28;104695;-64
2024/02/13 08:24:14;;;;;;;;;;;;;;;12.39;51.20;100836.81;4908570;28;104691;-68
2024/02/13 08:26:40;;;;;;;;;;;;;;;12.56;51.20;100841.94;4920227;28;98134;-64
2024/02/13 08:29:06;;;;;;;;;;;;;;;12.62;51.02;100836.25;4918650;28;99481;-68
2024/02/13 08:31:32;;;;;;;;;;;;;;;12.69;51.22;100839.50;4896993;28;109943;-64
2024/02/13 08:33:59;;;;;;;;;;;;;;;12.78;50.96;100837.03;4904867;28;101064;-68
2024/02/13 08:36:25;;;;;;;;;;;;;;;12.91;50.85;100836.47;4906385;28;98161;-70
2024/02/13 08:38:51;;;;;;;;;;;;;;;13.11;51.17;100849.13;4923504;28;103719;-68
2024/02/13 08:41:18;;;;;;;;;;;;;;;13.33;50.92;100843.44;4923611;28;98132;-68
2024/02/13 08:43:45;;;;;;;;;;;;;;;13.89;50.62;100845.06;4921456;28;98673;-64
2024/02/13 08:46:13;;;;;;;;;;;;;;;16.69;47.53;100841.84;4923030;28;98717;-65
2024/02/13 08:48:39;;;;;;;;;;;;;;;17.49;47.68;100834.38;4907343;28;98000;-69
2024/02/13 08:51:05;;;;;;;;;;;;;;;17.38;48.65;100844.66;4934289;28;130187;-69
2024/02/13 08:53:33;;;;;;;;;;;;;;;17.43;48.88;100847.28;4923246;28;98143;-69
2024/02/13 08:55:59;;;;;;;;;;;;;;;17.56;49.09;100848.38;4921652;28;98451;-69
2024/02/13 08:58:26;;;;;;;;;;;;;;;17.53;49.25;100851.72;4920131;28;104614;-69
2024/02/13 09:00:52;;;;;;;;;;;;;;;17.65;49.22;100845.75;4909261;28;99858;-69
2024/02/13 09:03:18;;;;;;;;;;;;;;;17.56;49.63;100853.00;4922220;28;98626;-65
2024/02/13 09:05:44;;;;;;;;;;;;;;;17.47;49.63;100857.56;4918070;28;101197;-65
2024/02/13 09:08:10;;;;;;;;;;;;;;;18.07;49.11;100850.00;4922678;28;101039;-69
2024/02/13 09:10:36;;;;;;;;;;;;;;;18.47;49.00;100862.97;4906104;28;99835;-69
2024/02/13 09:13:02;;;;;;;;;;;;;;;17.94;49.73;100869.94;4918683;28;128255;-65
2024/02/13 09:15:29;;;;;;;;;;;;;;;18.05;49.61;100875.97;4933887;28;98061;-69
2024/02/13 09:17:55;;;;;;;;;;;;;;;18.86;48.71;100881.41;4939542;28;99014;-69
2024/02/13 09:20:21;;;;;;;;;;;;;;;18.36;49.78;100882.34;4902861;28;98774;-69
2024/02/13 09:22:47;;;;;;;;;;;;;;;20.04;47.68;100871.53;4922004;28;98084;-69
2024/02/13 09:25:14;;;;;;;;;;;;;;;20.92;47.40;100885.94;4919893;28;98366;-69
2024/02/13 09:27:41;;;;;;;;;;;;;;;22.24;46.56;100883.00;4903514;28;99456;-70
2024/02/13 09:30:07;;;;;;;;;;;;;;;23.29;46.46;100894.53;4917178;28;102238;-70
2024/02/13 09:32:35;;;;;;;;;;;;;;;24.24;45.77;100900.63;4935006;28;98161;-66
2024/02/13 09:35:03;;;;;;;;;;;;;;;25.17;45.83;100897.69;4919105;28;98992;-70
2024/02/13 09:37:29;;;;;;;;;;;;;;;25.98;45.54;100906.31;4942380;28;98400;-66
2024/02/13 09:39:55;;;;;;;;;;;;;;;25.88;46.34;100902.16;4921169;28;100101;-70
2024/02/13 09:42:23;;;;;;;;;;;;;;;27.56;44.67;100904.53;4904528;28;128333;-66
2024/02/13 09:44:50;;;;;;;;;;;;;;;28.01;44.53;100906.38;4908523;28;98301;-69
2024/02/13 09:47:16;;;;;;;;;;;;;;;28.11;44.85;100904.94;4915589;28;99150;-70
2024/02/13 09:49:45;;;;;;;;;;;;;;;26.85;46.73;100910.44;4919766;28;99662;-66
2024/02/13 09:52:12;;;;;;;;;;;;;;;26.58;46.93;100911.50;4933926;28;98244;-70
2024/02/13 09:54:39;;;;;;;;;;;;;;;26.95;46.40;100900.72;4904545;28;98586;-66
2024/02/13 09:57:05;;;;;;;;;;;;;;;27.75;46.02;100896.16;4907149;28;99228;-70
2024/02/13 09:59:32;;;;;;;;;;;;;;;28.74;45.25;100901.34;4919607;28;98063;-66
2024/02/13 10:01:59;;;;;;;;;;;;;;;29.65;44.86;100896.22;4916069;28;97948;-66
2024/02/13 10:04:26;;;;;;;;;;;;;;;29.12;46.00;100902.13;4924909;28;98285;-66
2024/02/13 10:06:53;;;;;;;;;;;;;;;30.77;44.40;100909.41;4917925;28;98251;-66
2024/02/13 10:09:19;;;;;;;;;;;;;;;30.94;44.59;100905.88;4907619;28;99861;-66
2024/02/13 10:11:48;;;;;;;;;;;;;;;31.75;43.76;100904.25;4905170;28;98267;-68
2024/02/13 10:14:20;;;;;;;;;;;;;;;33.64;42.31;100905.16;4904698;28;98485;-66
2024/02/13 10:16:50;;;;;;;;;;;;;;;31.85;44.51;100905.44;4918610;28;98433;-66
2024/02/13 10:19:21;;;;;;;;;;;;;;;32.81;43.49;100895.84;4901941;28;98310;-66
2024/02/13 10:21:49;;;;;;;;;;;;;;;31.28;45.58;100888.78;4921700;28;98188;-70
2024/02/13 10:24:16;;;;;;;;;;;;;;;29.95;47.47;100895.19;4921062;28;98036;-70
2024/02/13 10:26:42;;;;;;;;;;;;;;;28.82;48.33;100883.59;4948769;28;99538;-66
2024/02/13 10:29:09;;;;;;;;;;;;;;;27.66;49.20;100884.50;4939372;28;98422;-66
2024/02/13 10:31:36;;;;;;;;;;;;;;;26.66;50.11;100891.94;4938991;28;99536;-70
2024/02/13 10:34:07;;;;;;;;;;;;;;;25.79;50.41;100900.75;4923080;28;98339;-70
2024/02/13 10:36:36;;;;;;;;;;;;;;;25.01;50.60;100894.09;4939142;28;100349;-70
2024/02/13 10:39:08;;;;;;;;;;;;;;;24.53;50.93;100895.97;4918532;28;100181;-66
2024/02/13 10:41:47;;;;;;;;;;;;;;;26.23;48.35;100895.00;4909072;28;100500;-70
2024/02/13 10:44:13;;;;;;;;;;;;;;;27.49;46.80;100899.69;4911991;28;98329;-66
2024/02/13 10:46:40;;;;;;;;;;;;;;;30.22;44.10;100904.06;4904462;28;98308;-70
2024/02/13 10:49:38;;;;;;;;;;;;;;;30.20;44.59;100901.69;4942469;28;99499;-70
2024/02/13 10:52:05;;;;;;;;;;;;;;;33.64;41.33;100905.16;4931690;28;97854;-66
2024/02/13 10:54:31;;;;;;;;;;;;;;;35.36;40.22;100909.22;4909320;28;98034;-67
2024/02/13 10:56:58;;;;;;;;;;;;;;;36.59;39.56;100908.44;4925124;28;98304;-70
2024/02/13 10:59:28;;;;;;;;;;;;;;;37.38;39.28;100895.28;4909958;28;100214;-71
2024/02/13 11:01:58;;;;;;;;;;;;;;;37.94;39.40;100895.00;4927234;28;98391;-66
2024/02/13 11:04:25;;;;;;;;;;;;;;;38.68;39.34;100888.34;4912549;28;98027;-64
2024/02/13 11:06:53;;;;;;;;;;;;;;;38.95;39.60;100891.47;4924761;28;98111;-69
2024/02/13 11:09:20;;;;;;;;;;;;;;;39.22;39.67;100881.72;4929287;28;98813;-68
2024/02/13 11:11:47;;;;;;;;;;;;;;;38.91;40.26;100878.75;4919307;28;99204;-68
2024/02/13 11:14:23;;;;;;;;;;;;;;;38.47;41.17;100884.16;4935647;28;98668;-64
2024/02/13 11:17:12;;;;;;;;;;;;;;;37.50;42.34;100869.28;4908843;28;98262;-64
2024/02/13 11:19:50;;;;;;;;;;;;;;;36.16;43.71;100874.88;4941906;28;98602;-64
2024/02/13 11:22:31;;;;;;;;;;;;;;;34.28;45.68;100872.09;4925393;28;98180;-68
2024/02/13 11:25:08;;;;;;;;;;;;;;;32.00;47.30;100869.97;4908861;28;98323;-64
2024/02/13 11:27:36;;;;;;;;;;;;;;;31.09;47.71;100864.94;4922467;28;98160;-64
2024/02/13 11:30:06;;;;;;;;;;;;;;;30.34;48.09;100864.81;4940822;28;98011;-64
2024/02/13 11:32:37;;;;;;;;;;;;;;;29.59;48.42;100859.69;4925644;28;98141;-68
2024/02/13 11:35:09;;;;;;;;;;;;;;;29.04;48.74;100865.22;4925348;28;98140;-68
2024/02/13 11:37:38;;;;;;;;;;;;;;;27.91;49.40;100873.81;4923302;28;98670;-63
2024/02/13 11:40:07;;;;;;;;;;;;;;;27.01;50.22;100879.13;4922897;28;98987;-70
2024/02/13 11:42:35;;;;;;;;;;;;;;;26.27;50.44;100877.31;4907321;28;98063;-66
2024/02/13 11:45:01;;;;;;;;;;;;;;;25.58;50.73;100873.41;4908661;28;98120;-69
2024/02/13 11:47:31;;;;;;;;;;;;;;;24.90;50.88;100875.31;4923783;28;98755;-65
2024/02/13 11:49:58;;;;;;;;;;;;;;;24.37;51.12;100876.59;4911443;28;97899;-66
2024/02/13 11:52:27;;;;;;;;;;;;;;;23.75;51.08;100876.78;4919971;28;98248;-66
2024/02/13 11:54:54;;;;;;;;;;;;;;;23.58;51.04;100877.00;4900925;28;98075;-70
2024/02/13 11:57:22;;;;;;;;;;;;;;;23.24;51.25;100886.50;4933119;28;98244;-69
2024/02/13 11:59:59;;;;;;;;;;;;;;;22.90;51.05;100888.47;4917037;28;98405;-66
2024/02/13 12:02:28;;;;;;;;;;;;;;;22.52;51.36;100883.25;4924978;28;98235;-65
2024/02/13 12:04:56;;;;;;;;;;;;;;;22.18;51.32;100882.41;4921797;28;98920;-66
2024/02/13 12:07:23;;;;;;;;;;;;;;;21.95;51.30;100889.31;4909470;28;98968;-65
2024/02/13 12:09:52;;;;;;;;;;;;;;;21.68;51.24;100890.63;4907500;28;98345;-69
2024/02/13 12:12:20;;;;;;;;;;;;;;;21.45;51.21;100881.88;4939606;28;98287;-69
2024/02/13 12:14:52;;;;;;;;;;;;;;;21.24;51.30;100890.03;4926614;28;98088;-65
2024/02/13 12:17:20;;;;;;;;;;;;;;;21.05;51.28;100890.41;4909577;28;98350;-67
2024/02/13 12:19:47;;;;;;;;;;;;;;;20.84;51.11;100890.31;4928509;28;99595;-65
2024/02/13 12:22:16;;;;;;;;;;;;;;;20.67;51.15;100890.34;4921730;28;98693;-69
2024/02/13 12:24:44;;;;;;;;;;;;;;;20.50;51.16;100902.94;4921740;28;98451;-69
2024/02/13 12:27:12;;;;;;;;;;;;;;;20.30;51.17;100900.81;4919445;28;98432;-65
2024/02/13 12:29:41;;;;;;;;;;;;;;;20.08;51.23;100893.56;4924267;28;98188;-65
2024/02/13 12:32:17;;;;;;;;;;;;;;;19.92;51.16;100901.41;4923943;28;99869;-69
2024/02/13 12:34:48;;;;;;;;;;;;;;;19.73;51.15;100899.00;4934564;28;99313;-69
2024/02/13 12:37:20;;;;;;;;;;;;;;;19.61;51.18;100898.78;4902444;28;99262;-65
2024/02/13 12:39:49;;;;;;;;;;;;;;;19.60;50.91;100888.94;4951829;28;98172;-65